sensor_id;sensor_type;location;lat;lon;timestamp;pressure;altitude;pressure_sealevel;temperature;humidity
43878;BME280;29815;48.184;11.268;2022-10-18T00:01:41;96547.03;;;10.12;100.00
43878;BME280;29815;48.184;11.268;2022-10-18T00:04:10;96546.13;;;10.07;100.00
43878;BME280;29815;48.184;11.268;2022-10-18T00:06:41;96548.72;;;10.02;100.00
43878;BME280;29815;48.184;11.268;2022-10-18T00:09:11;96549.94;;;9.94;100.00
43878;BME280;29815;48.184;11.268;2022-10-18T00:11:41;96549.84;;;9.89;100.00
43878;BME280;29815;48.184;11.268;2022-10-18T00:14:10;96546.25;;;9.83;100.00
43878;BME280;29815;48.184;11.268;2022-10-18T00:16:40;96552.44;;;9.84;100.00
43878;BME280;29815;48.184;11.268;2022-10-18T00:19:10;96546.81;;;9.85;100.00
43878;BME280;29815;48.184;11.268;2022-10-18T00:21:41;96540.47;;;9.92;100.00
43878;BME280;29815;48.184;11.268;2022-10-18T00:24:15;96543.03;;;9.98;100.00
43878;BME280;29815;48.184;11.268;2022-10-18T00:26:44;96537.41;;;10.00;100.00
43878;BME280;29815;48.184;11.268;2022-10-18T00:29:15;96536.59;;;9.99;100.00
43878;BME280;29815;48.184;11.268;2022-10-18T00:31:44;96530.97;;;10.01;100.00
43878;BME280;29815;48.184;11.268;2022-10-18T00:34:15;96522.41;;;10.04;100.00
43878;BME280;29815;48.184;11.268;2022-10-18T00:36:46;96520.31;;;10.06;100.00
43878;BME280;29815;48.184;11.268;2022-10-18T00:39:19;96517.13;;;10.09;100.00
43878;BME280;29815;48.184;11.268;2022-10-18T00:41:49;96518.81;;;9.98;100.00
43878;BME280;29815;48.184;11.268;2022-10-18T00:47:53;96523.34;;;9.81;100.00
43878;BME280;29815;48.184;11.268;2022-10-18T00:50:28;96523.16;;;9.71;100.00
43878;BME280;29815;48.184;11.268;2022-10-18T00:53:05;96529.16;;;9.61;100.00
43878;BME280;29815;48.184;11.268;2022-10-18T00:55:36;96529.06;;;9.56;100.00
43878;BME280;29815;48.184;11.268;2022-10-18T00:58:06;96532.22;;;9.53;100.00
43878;BME280;29815;48.184;11.268;2022-10-18T01:00:36;96533.19;;;9.47;100.00
43878;BME280;29815;48.184;11.268;2022-10-18T01:03:08;96535.19;;;9.40;100.00
43878;BME280;29815;48.184;11.268;2022-10-18T01:05:45;96548.50;;;9.35;100.00
43878;BME280;29815;48.184;11.268;2022-10-18T01:08:31;96540.38;;;9.30;100.00
43878;BME280;29815;48.184;11.268;2022-10-18T01:14:36;96542.78;;;9.31;100.00
43878;BME280;29815;48.184;11.268;2022-10-18T01:17:24;96546.78;;;9.29;100.00
43878;BME280;29815;48.184;11.268;2022-10-18T01:20:54;96537.41;;;9.31;100.00
43878;BME280;29815;48.184;11.268;2022-10-18T01:27:39;96540.78;;;9.78;100.00
43878;BME280;29815;48.184;11.268;2022-10-18T01:30:45;96536.06;;;9.85;100.00
43878;BME280;29815;48.184;11.268;2022-10-18T01:33:25;96534.03;;;9.93;100.00
43878;BME280;29815;48.184;11.268;2022-10-18T01:36:04;96527.59;;;9.94;100.00
43878;BME280;29815;48.184;11.268;2022-10-18T01:38:38;96532.97;;;9.94;100.00
43878;BME280;29815;48.184;11.268;2022-10-18T01:41:10;96529.22;;;9.95;100.00
43878;BME280;29815;48.184;11.268;2022-10-18T01:43:45;96532.59;;;10.02;100.00
43878;BME280;29815;48.184;11.268;2022-10-18T01:46:21;96524.38;;;10.08;100.00
43878;BME280;29815;48.184;11.268;2022-10-18T01:48:52;96525.78;;;10.11;100.00
43878;BME280;29815;48.184;11.268;2022-10-18T01:51:25;96527.66;;;10.10;100.00
43878;BME280;29815;48.184;11.268;2022-10-18T01:53:55;96519.59;;;10.10;100.00
43878;BME280;29815;48.184;11.268;2022-10-18T01:56:35;96515.00;;;10.11;100.00
43878;BME280;29815;48.184;11.268;2022-10-18T01:59:29;96521.22;;;10.11;100.00
43878;BME280;29815;48.184;11.268;2022-10-18T02:02:16;96516.56;;;10.07;100.00
43878;BME280;29815;48.184;11.268;2022-10-18T02:05:05;96519.97;;;10.02;100.00
43878;BME280;29815;48.184;11.268;2022-10-18T02:07:47;96529.81;;;9.97;100.00
43878;BME280;29815;48.184;11.268;2022-10-18T02:10:45;96531.81;;;9.90;100.00
43878;BME280;29815;48.184;11.268;2022-10-18T02:13:22;96527.44;;;9.83;100.00
43878;BME280;29815;48.184;11.268;2022-10-18T02:15:58;96526.28;;;9.79;100.00
43878;BME280;29815;48.184;11.268;2022-10-18T02:18:37;96521.97;;;9.78;100.00
43878;BME280;29815;48.184;11.268;2022-10-18T02:21:12;96520.66;;;9.81;100.00
43878;BME280;29815;48.184;11.268;2022-10-18T02:23:45;96517.22;;;9.85;100.00
43878;BME280;29815;48.184;11.268;2022-10-18T02:26:15;96519.88;;;9.97;100.00
43878;BME280;29815;48.184;11.268;2022-10-18T02:28:45;96519.16;;;10.02;100.00
43878;BME280;29815;48.184;11.268;2022-10-18T02:31:18;96520.22;;;10.01;100.00
43878;BME280;29815;48.184;11.268;2022-10-18T02:33:56;96515.16;;;10.04;100.00
43878;BME280;29815;48.184;11.268;2022-10-18T02:36:33;96524.03;;;10.05;100.00
43878;BME280;29815;48.184;11.268;2022-10-18T02:39:12;96521.94;;;10.07;100.00
43878;BME280;29815;48.184;11.268;2022-10-18T02:41:46;96522.66;;;10.02;100.00
43878;BME280;29815;48.184;11.268;2022-10-18T02:44:15;96521.59;;;10.03;100.00
43878;BME280;29815;48.184;11.268;2022-10-18T02:46:45;96525.91;;;10.04;100.00
43878;BME280;29815;48.184;11.268;2022-10-18T02:49:16;96526.84;;;10.10;100.00
43878;BME280;29815;48.184;11.268;2022-10-18T02:51:46;96528.72;;;10.09;100.00
43878;BME280;29815;48.184;11.268;2022-10-18T02:54:16;96527.88;;;10.09;100.00
43878;BME280;29815;48.184;11.268;2022-10-18T02:56:45;96523.91;;;10.11;100.00
43878;BME280;29815;48.184;11.268;2022-10-18T02:59:14;96520.41;;;10.11;100.00
43878;BME280;29815;48.184;11.268;2022-10-18T03:01:44;96513.63;;;10.08;100.00
43878;BME280;29815;48.184;11.268;2022-10-18T03:04:14;96527.06;;;10.08;100.00
43878;BME280;29815;48.184;11.268;2022-10-18T03:06:44;96528.38;;;10.06;100.00
43878;BME280;29815;48.184;11.268;2022-10-18T03:09:14;96524.88;;;10.05;100.00
43878;BME280;29815;48.184;11.268;2022-10-18T03:11:43;96530.47;;;10.04;100.00
43878;BME280;29815;48.184;11.268;2022-10-18T03:14:13;96530.47;;;10.04;100.00
43878;BME280;29815;48.184;11.268;2022-10-18T03:16:43;96530.25;;;10.05;100.00
43878;BME280;29815;48.184;11.268;2022-10-18T03:19:12;96534.56;;;10.06;100.00
43878;BME280;29815;48.184;11.268;2022-10-18T03:21:43;96540.53;;;10.08;100.00
43878;BME280;29815;48.184;11.268;2022-10-18T03:24:13;96542.06;;;10.04;100.00
43878;BME280;29815;48.184;11.268;2022-10-18T03:26:52;96542.16;;;10.09;100.00
43878;BME280;29815;48.184;11.268;2022-10-18T03:29:21;96543.22;;;10.08;100.00
43878;BME280;29815;48.184;11.268;2022-10-18T03:31:51;96537.06;;;10.13;100.00
43878;BME280;29815;48.184;11.268;2022-10-18T03:34:20;96537.41;;;10.16;100.00
43878;BME280;29815;48.184;11.268;2022-10-18T03:36:51;96538.94;;;10.24;100.00
43878;BME280;29815;48.184;11.268;2022-10-18T03:39:21;96546.19;;;10.24;100.00
43878;BME280;29815;48.184;11.268;2022-10-18T03:41:51;96548.16;;;10.16;100.00
43878;BME280;29815;48.184;11.268;2022-10-18T03:44:20;96554.38;;;10.17;100.00
43878;BME280;29815;48.184;11.268;2022-10-18T03:46:50;96554.63;;;10.15;100.00
43878;BME280;29815;48.184;11.268;2022-10-18T03:49:19;96552.09;;;10.09;100.00
43878;BME280;29815;48.184;11.268;2022-10-18T03:51:49;96557.22;;;10.10;100.00
43878;BME280;29815;48.184;11.268;2022-10-18T03:54:19;96555.44;;;10.16;100.00
43878;BME280;29815;48.184;11.268;2022-10-18T03:56:49;96549.78;;;10.29;100.00
43878;BME280;29815;48.184;11.268;2022-10-18T03:59:18;96555.75;;;10.31;100.00
43878;BME280;29815;48.184;11.268;2022-10-18T04:01:48;96547.28;;;10.39;100.00
43878;BME280;29815;48.184;11.268;2022-10-18T04:04:18;96549.88;;;10.34;100.00
43878;BME280;29815;48.184;11.268;2022-10-18T04:06:47;96560.88;;;10.33;100.00
43878;BME280;29815;48.184;11.268;2022-10-18T04:09:18;96560.53;;;10.29;100.00
43878;BME280;29815;48.184;11.268;2022-10-18T04:11:49;96564.38;;;10.33;100.00
43878;BME280;29815;48.184;11.268;2022-10-18T04:14:18;96552.94;;;10.26;100.00
43878;BME280;29815;48.184;11.268;2022-10-18T04:16:49;96547.81;;;10.25;100.00
43878;BME280;29815;48.184;11.268;2022-10-18T04:19:18;96552.00;;;10.32;100.00
43878;BME280;29815;48.184;11.268;2022-10-18T04:21:47;96541.13;;;10.27;100.00
43878;BME280;29815;48.184;11.268;2022-10-18T04:24:18;96537.97;;;10.30;100.00
43878;BME280;29815;48.184;11.268;2022-10-18T04:26:48;96535.19;;;10.25;100.00
43878;BME280;29815;48.184;11.268;2022-10-18T04:29:17;96532.97;;;10.22;100.00
43878;BME280;29815;48.184;11.268;2022-10-18T04:31:46;96539.16;;;10.23;100.00
43878;BME280;29815;48.184;11.268;2022-10-18T04:34:16;96547.00;;;10.24;100.00
43878;BME280;29815;48.184;11.268;2022-10-18T04:36:45;96546.91;;;10.19;100.00
43878;BME280;29815;48.184;11.268;2022-10-18T04:39:15;96534.47;;;10.18;100.00
43878;BME280;29815;48.184;11.268;2022-10-18T04:41:46;96533.63;;;10.29;100.00
43878;BME280;29815;48.184;11.268;2022-10-18T04:44:15;96528.84;;;10.31;100.00
43878;BME280;29815;48.184;11.268;2022-10-18T04:46:45;96527.78;;;10.32;100.00
43878;BME280;29815;48.184;11.268;2022-10-18T04:49:14;96529.72;;;10.37;100.00
43878;BME280;29815;48.184;11.268;2022-10-18T04:51:44;96529.22;;;10.40;100.00
43878;BME280;29815;48.184;11.268;2022-10-18T04:54:13;96522.88;;;10.46;100.00
43878;BME280;29815;48.184;11.268;2022-10-18T04:56:43;96527.19;;;10.47;100.00
43878;BME280;29815;48.184;11.268;2022-10-18T04:59:13;96526.47;;;10.51;100.00
43878;BME280;29815;48.184;11.268;2022-10-18T05:01:43;96518.38;;;10.51;100.00
43878;BME280;29815;48.184;11.268;2022-10-18T05:04:13;96519.78;;;10.54;100.00
43878;BME280;29815;48.184;11.268;2022-10-18T05:06:42;96520.00;;;10.52;100.00
43878;BME280;29815;48.184;11.268;2022-10-18T05:09:11;96525.88;;;10.49;100.00
43878;BME280;29815;48.184;11.268;2022-10-18T05:11:41;96530.94;;;10.46;100.00
43878;BME280;29815;48.184;11.268;2022-10-18T05:14:10;96530.13;;;10.45;100.00
43878;BME280;29815;48.184;11.268;2022-10-18T05:16:41;96538.19;;;10.45;100.00
43878;BME280;29815;48.184;11.268;2022-10-18T05:19:11;96529.56;;;10.43;100.00
43878;BME280;29815;48.184;11.268;2022-10-18T05:21:40;96528.50;;;10.44;100.00
43878;BME280;29815;48.184;11.268;2022-10-18T05:24:10;96537.22;;;10.51;100.00
43878;BME280;29815;48.184;11.268;2022-10-18T05:26:40;96533.22;;;10.54;100.00
43878;BME280;29815;48.184;11.268;2022-10-18T05:29:09;96542.53;;;10.63;100.00
43878;BME280;29815;48.184;11.268;2022-10-18T05:31:40;96537.97;;;10.64;100.00
43878;BME280;29815;48.184;11.268;2022-10-18T05:34:10;96541.28;;;10.71;100.00
43878;BME280;29815;48.184;11.268;2022-10-18T05:36:39;96534.28;;;10.70;100.00
43878;BME280;29815;48.184;11.268;2022-10-18T05:39:09;96534.59;;;10.73;100.00
43878;BME280;29815;48.184;11.268;2022-10-18T05:41:38;96540.63;;;10.80;100.00
43878;BME280;29815;48.184;11.268;2022-10-18T05:44:08;96545.69;;;10.77;100.00
43878;BME280;29815;48.184;11.268;2022-10-18T05:46:37;96535.25;;;10.80;100.00
43878;BME280;29815;48.184;11.268;2022-10-18T05:49:08;96545.78;;;10.82;100.00
43878;BME280;29815;48.184;11.268;2022-10-18T05:51:39;96541.69;;;10.79;100.00
43878;BME280;29815;48.184;11.268;2022-10-18T05:54:10;96539.81;;;10.80;100.00
43878;BME280;29815;48.184;11.268;2022-10-18T05:56:40;96543.41;;;10.85;100.00
43878;BME280;29815;48.184;11.268;2022-10-18T05:59:10;96538.84;;;10.86;100.00
43878;BME280;29815;48.184;11.268;2022-10-18T06:01:41;96543.03;;;10.99;100.00
43878;BME280;29815;48.184;11.268;2022-10-18T06:04:12;96536.59;;;11.00;100.00
43878;BME280;29815;48.184;11.268;2022-10-18T06:06:41;96540.09;;;11.00;100.00
43878;BME280;29815;48.184;11.268;2022-10-18T06:09:11;96529.06;;;11.02;100.00
43878;BME280;29815;48.184;11.268;2022-10-18T06:11:40;96533.56;;;11.13;100.00
43878;BME280;29815;48.184;11.268;2022-10-18T06:14:10;96546.53;;;11.16;100.00
43878;BME280;29815;48.184;11.268;2022-10-18T06:16:39;96537.06;;;11.13;100.00
43878;BME280;29815;48.184;11.268;2022-10-18T06:19:09;96539.44;;;11.10;100.00
43878;BME280;29815;48.184;11.268;2022-10-18T06:21:39;96545.97;;;11.14;100.00
43878;BME280;29815;48.184;11.268;2022-10-18T06:24:09;96551.91;;;11.16;100.00
43878;BME280;29815;48.184;11.268;2022-10-18T06:26:38;96544.75;;;11.27;100.00
43878;BME280;29815;48.184;11.268;2022-10-18T06:29:08;96548.47;;;11.21;100.00
43878;BME280;29815;48.184;11.268;2022-10-18T06:31:37;96558.16;;;11.22;100.00
43878;BME280;29815;48.184;11.268;2022-10-18T06:34:06;96562.25;;;11.24;100.00
43878;BME280;29815;48.184;11.268;2022-10-18T06:36:36;96563.31;;;11.23;100.00
43878;BME280;29815;48.184;11.268;2022-10-18T06:39:06;96557.91;;;11.23;100.00
43878;BME280;29815;48.184;11.268;2022-10-18T06:41:36;96561.38;;;11.18;100.00
43878;BME280;29815;48.184;11.268;2022-10-18T06:44:19;96568.09;;;11.16;100.00
43878;BME280;29815;48.184;11.268;2022-10-18T06:46:49;96573.72;;;11.14;100.00
43878;BME280;29815;48.184;11.268;2022-10-18T06:49:20;96582.38;;;11.16;100.00
43878;BME280;29815;48.184;11.268;2022-10-18T06:51:49;96574.63;;;11.20;100.00
43878;BME280;29815;48.184;11.268;2022-10-18T06:54:20;96583.88;;;11.29;100.00
43878;BME280;29815;48.184;11.268;2022-10-18T06:56:50;96574.31;;;11.38;100.00
43878;BME280;29815;48.184;11.268;2022-10-18T06:59:23;96573.56;;;11.43;100.00
43878;BME280;29815;48.184;11.268;2022-10-18T07:01:58;96570.31;;;11.41;100.00
43878;BME280;29815;48.184;11.268;2022-10-18T07:04:27;96568.41;;;11.41;100.00
43878;BME280;29815;48.184;11.268;2022-10-18T07:06:57;96564.44;;;11.49;100.00
43878;BME280;29815;48.184;11.268;2022-10-18T07:09:28;96571.28;;;11.57;100.00
43878;BME280;29815;48.184;11.268;2022-10-18T07:11:57;96565.72;;;11.63;100.00
43878;BME280;29815;48.184;11.268;2022-10-18T07:14:27;96575.50;;;11.69;100.00
43878;BME280;29815;48.184;11.268;2022-10-18T07:16:58;96574.75;;;11.74;100.00
43878;BME280;29815;48.184;11.268;2022-10-18T07:19:28;96576.19;;;11.81;100.00
43878;BME280;29815;48.184;11.268;2022-10-18T07:21:57;96577.97;;;11.93;100.00
43878;BME280;29815;48.184;11.268;2022-10-18T07:24:28;96585.66;;;12.06;100.00
43878;BME280;29815;48.184;11.268;2022-10-18T07:26:57;96583.25;;;12.09;100.00
43878;BME280;29815;48.184;11.268;2022-10-18T07:29:27;96579.53;;;12.15;100.00
43878;BME280;29815;48.184;11.268;2022-10-18T07:31:56;96575.91;;;12.27;100.00
43878;BME280;29815;48.184;11.268;2022-10-18T07:34:26;96582.13;;;12.32;100.00
43878;BME280;29815;48.184;11.268;2022-10-18T07:36:55;96575.66;;;12.33;100.00
43878;BME280;29815;48.184;11.268;2022-10-18T07:39:25;96570.81;;;12.35;100.00
43878;BME280;29815;48.184;11.268;2022-10-18T07:41:56;96573.53;;;12.35;100.00
43878;BME280;29815;48.184;11.268;2022-10-18T07:44:26;96574.69;;;12.44;100.00
43878;BME280;29815;48.184;11.268;2022-10-18T07:46:55;96580.41;;;12.48;100.00
43878;BME280;29815;48.184;11.268;2022-10-18T07:49:25;96583.19;;;12.58;100.00
43878;BME280;29815;48.184;11.268;2022-10-18T07:51:54;96583.53;;;12.67;100.00
43878;BME280;29815;48.184;11.268;2022-10-18T07:54:24;96593.59;;;12.76;100.00
43878;BME280;29815;48.184;11.268;2022-10-18T07:56:54;96593.13;;;12.84;100.00
43878;BME280;29815;48.184;11.268;2022-10-18T07:59:24;96593.81;;;13.02;100.00
43878;BME280;29815;48.184;11.268;2022-10-18T08:01:53;96598.75;;;13.15;100.00
43878;BME280;29815;48.184;11.268;2022-10-18T08:04:23;96591.84;;;13.29;100.00
43878;BME280;29815;48.184;11.268;2022-10-18T08:06:52;96589.53;;;13.53;100.00
43878;BME280;29815;48.184;11.268;2022-10-18T08:09:21;96592.81;;;13.60;100.00
43878;BME280;29815;48.184;11.268;2022-10-18T08:11:51;96584.25;;;13.78;100.00
43878;BME280;29815;48.184;11.268;2022-10-18T08:14:22;96583.72;;;13.86;100.00
43878;BME280;29815;48.184;11.268;2022-10-18T08:16:51;96578.34;;;14.02;100.00
43878;BME280;29815;48.184;11.268;2022-10-18T08:19:20;96586.00;;;14.20;100.00
43878;BME280;29815;48.184;11.268;2022-10-18T08:21:50;96580.59;;;14.30;100.00
43878;BME280;29815;48.184;11.268;2022-10-18T08:24:19;96571.72;;;14.60;100.00
43878;BME280;29815;48.184;11.268;2022-10-18T08:26:50;96571.19;;;14.78;100.00
43878;BME280;29815;48.184;11.268;2022-10-18T08:29:20;96567.38;;;15.00;100.00
43878;BME280;29815;48.184;11.268;2022-10-18T08:31:56;96568.44;;;15.19;100.00
43878;BME280;29815;48.184;11.268;2022-10-18T08:34:25;96570.84;;;15.36;100.00
43878;BME280;29815;48.184;11.268;2022-10-18T08:36:54;96565.38;;;15.46;100.00
43878;BME280;29815;48.184;11.268;2022-10-18T08:39:24;96566.44;;;15.60;100.00
43878;BME280;29815;48.184;11.268;2022-10-18T08:42:19;96558.81;;;15.72;100.00
43878;BME280;29815;48.184;11.268;2022-10-18T08:44:56;96561.22;;;15.84;100.00
43878;BME280;29815;48.184;11.268;2022-10-18T08:47:47;96566.59;;;15.89;100.00
43878;BME280;29815;48.184;11.268;2022-10-18T08:50:21;96572.28;;;15.98;100.00
43878;BME280;29815;48.184;11.268;2022-10-18T08:53:00;96573.88;;;16.04;100.00
43878;BME280;29815;48.184;11.268;2022-10-18T08:55:39;96574.31;;;16.21;100.00
43878;BME280;29815;48.184;11.268;2022-10-18T08:58:16;96574.84;;;16.23;100.00
43878;BME280;29815;48.184;11.268;2022-10-18T09:00:59;96575.09;;;16.32;100.00
43878;BME280;29815;48.184;11.268;2022-10-18T09:03:57;96581.22;;;16.47;100.00
43878;BME280;29815;48.184;11.268;2022-10-18T09:07:37;96578.16;;;16.64;100.00
43878;BME280;29815;48.184;11.268;2022-10-18T09:10:47;96572.88;;;16.78;100.00
43878;BME280;29815;48.184;11.268;2022-10-18T09:13:53;96568.34;;;16.97;100.00
43878;BME280;29815;48.184;11.268;2022-10-18T09:16:38;96571.03;;;17.02;100.00
43878;BME280;29815;48.184;11.268;2022-10-18T09:19:22;96578.63;;;17.05;100.00
43878;BME280;29815;48.184;11.268;2022-10-18T09:22:05;96569.59;;;17.10;100.00
43878;BME280;29815;48.184;11.268;2022-10-18T09:24:47;96567.41;;;17.12;100.00
43878;BME280;29815;48.184;11.268;2022-10-18T09:27:22;96564.69;;;17.12;100.00
43878;BME280;29815;48.184;11.268;2022-10-18T09:30:04;96568.47;;;17.16;100.00
43878;BME280;29815;48.184;11.268;2022-10-18T09:32:46;96569.56;;;17.15;100.00
43878;BME280;29815;48.184;11.268;2022-10-18T09:35:21;96580.44;;;17.15;100.00
43878;BME280;29815;48.184;11.268;2022-10-18T09:38:08;96566.22;;;17.23;100.00
43878;BME280;29815;48.184;11.268;2022-10-18T09:40:50;96567.81;;;17.24;100.00
43878;BME280;29815;48.184;11.268;2022-10-18T09:43:24;96570.22;;;17.31;100.00
43878;BME280;29815;48.184;11.268;2022-10-18T09:46:00;96577.53;;;17.35;100.00
43878;BME280;29815;48.184;11.268;2022-10-18T09:48:41;96580.16;;;17.45;100.00
43878;BME280;29815;48.184;11.268;2022-10-18T09:51:16;96573.91;;;17.45;100.00
43878;BME280;29815;48.184;11.268;2022-10-18T09:54:09;96568.22;;;17.41;100.00
43878;BME280;29815;48.184;11.268;2022-10-18T09:56:49;96573.91;;;17.45;100.00
43878;BME280;29815;48.184;11.268;2022-10-18T09:59:33;96565.50;;;17.41;100.00
43878;BME280;29815;48.184;11.268;2022-10-18T10:02:05;96558.91;;;17.47;100.00
43878;BME280;29815;48.184;11.268;2022-10-18T10:04:38;96564.88;;;17.49;100.00
43878;BME280;29815;48.184;11.268;2022-10-18T10:07:13;96566.13;;;17.57;100.00
43878;BME280;29815;48.184;11.268;2022-10-18T10:09:48;96561.78;;;17.56;100.00
43878;BME280;29815;48.184;11.268;2022-10-18T10:12:29;96558.69;;;17.68;100.00
43878;BME280;29815;48.184;11.268;2022-10-18T10:15:18;96561.06;;;17.74;100.00
43878;BME280;29815;48.184;11.268;2022-10-18T10:17:55;96559.16;;;17.75;100.00
43878;BME280;29815;48.184;11.268;2022-10-18T10:20:33;96559.03;;;17.85;100.00
43878;BME280;29815;48.184;11.268;2022-10-18T10:23:14;96557.97;;;17.81;100.00
43878;BME280;29815;48.184;11.268;2022-10-18T10:25:51;96552.75;;;17.84;100.00
43878;BME280;29815;48.184;11.268;2022-10-18T10:28:25;96553.75;;;17.93;100.00
43878;BME280;29815;48.184;11.268;2022-10-18T10:31:17;96547.88;;;18.05;100.00
43878;BME280;29815;48.184;11.268;2022-10-18T10:33:57;96546.91;;;18.15;100.00
43878;BME280;29815;48.184;11.268;2022-10-18T10:36:30;96548.63;;;18.30;100.00
43878;BME280;29815;48.184;11.268;2022-10-18T10:39:06;96549.84;;;18.37;100.00
43878;BME280;29815;48.184;11.268;2022-10-18T10:41:40;96531.81;;;18.60;100.00
43878;BME280;29815;48.184;11.268;2022-10-18T10:44:15;96536.97;;;18.80;100.00
43878;BME280;29815;48.184;11.268;2022-10-18T10:46:48;96537.28;;;18.92;100.00
43878;BME280;29815;48.184;11.268;2022-10-18T10:49:21;96538.53;;;19.00;100.00
43878;BME280;29815;48.184;11.268;2022-10-18T10:52:18;96532.41;;;19.22;100.00
43878;BME280;29815;48.184;11.268;2022-10-18T10:54:56;96519.91;;;19.35;100.00
43878;BME280;29815;48.184;11.268;2022-10-18T10:57:50;96517.41;;;19.52;100.00
43878;BME280;29815;48.184;11.268;2022-10-18T11:00:43;96525.31;;;19.67;100.00
43878;BME280;29815;48.184;11.268;2022-10-18T11:03:15;96522.66;;;19.76;100.00
43878;BME280;29815;48.184;11.268;2022-10-18T11:06:01;96520.63;;;19.81;100.00
43878;BME280;29815;48.184;11.268;2022-10-18T11:08:38;96505.75;;;19.87;100.00
43878;BME280;29815;48.184;11.268;2022-10-18T11:11:18;96515.03;;;20.00;100.00
43878;BME280;29815;48.184;11.268;2022-10-18T11:13:58;96513.50;;;20.08;100.00
43878;BME280;29815;48.184;11.268;2022-10-18T11:17:00;96503.97;;;20.19;100.00
43878;BME280;29815;48.184;11.268;2022-10-18T11:19:38;96503.91;;;20.33;100.00
43878;BME280;29815;48.184;11.268;2022-10-18T11:22:17;96502.72;;;20.39;100.00
43878;BME280;29815;48.184;11.268;2022-10-18T11:24:50;96502.00;;;20.47;100.00
43878;BME280;29815;48.184;11.268;2022-10-18T11:27:25;96498.69;;;20.58;100.00
43878;BME280;29815;48.184;11.268;2022-10-18T11:30:17;96503.09;;;20.68;100.00
43878;BME280;29815;48.184;11.268;2022-10-18T11:33:01;96496.75;;;20.81;100.00
43878;BME280;29815;48.184;11.268;2022-10-18T11:35:41;96490.84;;;20.88;100.00
43878;BME280;29815;48.184;11.268;2022-10-18T11:38:32;96485.25;;;20.93;100.00
43878;BME280;29815;48.184;11.268;2022-10-18T11:41:23;96483.00;;;20.95;100.00
43878;BME280;29815;48.184;11.268;2022-10-18T11:44:00;96489.91;;;20.92;100.00
43878;BME280;29815;48.184;11.268;2022-10-18T11:46:46;96492.88;;;21.05;100.00
43878;BME280;29815;48.184;11.268;2022-10-18T11:49:49;96490.31;;;21.08;100.00
43878;BME280;29815;48.184;11.268;2022-10-18T11:52:32;96486.00;;;21.16;100.00
43878;BME280;29815;48.184;11.268;2022-10-18T11:55:21;96479.09;;;21.18;100.00
43878;BME280;29815;48.184;11.268;2022-10-18T11:58:22;96480.97;;;21.32;100.00
43878;BME280;29815;48.184;11.268;2022-10-18T12:01:06;96470.97;;;21.36;100.00
43878;BME280;29815;48.184;11.268;2022-10-18T12:03:53;96474.69;;;21.31;100.00
43878;BME280;29815;48.184;11.268;2022-10-18T12:06:31;96466.16;;;21.33;100.00
43878;BME280;29815;48.184;11.268;2022-10-18T12:09:13;96468.25;;;21.36;100.00
43878;BME280;29815;48.184;11.268;2022-10-18T12:11:52;96467.78;;;21.42;100.00
43878;BME280;29815;48.184;11.268;2022-10-18T12:14:29;96466.22;;;21.50;100.00
43878;BME280;29815;48.184;11.268;2022-10-18T12:17:04;96464.59;;;21.49;100.00
43878;BME280;29815;48.184;11.268;2022-10-18T12:20:02;96459.78;;;21.63;100.00
43878;BME280;29815;48.184;11.268;2022-10-18T12:22:37;96456.28;;;21.71;100.00
43878;BME280;29815;48.184;11.268;2022-10-18T12:25:11;96451.91;;;21.70;100.00
43878;BME280;29815;48.184;11.268;2022-10-18T12:27:49;96456.94;;;21.77;100.00
43878;BME280;29815;48.184;11.268;2022-10-18T12:30:33;96446.78;;;21.77;100.00
43878;BME280;29815;48.184;11.268;2022-10-18T12:33:12;96447.28;;;21.79;100.00
43878;BME280;29815;48.184;11.268;2022-10-18T12:36:07;96457.13;;;21.98;100.00
43878;BME280;29815;48.184;11.268;2022-10-18T12:38:47;96450.91;;;22.14;100.00
43878;BME280;29815;48.184;11.268;2022-10-18T12:41:22;96450.56;;;22.33;100.00
43878;BME280;29815;48.184;11.268;2022-10-18T12:44:00;96440.38;;;22.51;100.00
43878;BME280;29815;48.184;11.268;2022-10-18T12:46:48;96441.34;;;22.63;100.00
43878;BME280;29815;48.184;11.268;2022-10-18T12:49:24;96445.22;;;22.80;100.00
43878;BME280;29815;48.184;11.268;2022-10-18T12:51:59;96441.25;;;23.07;100.00
43878;BME280;29815;48.184;11.268;2022-10-18T12:54:33;96437.50;;;23.20;100.00
43878;BME280;29815;48.184;11.268;2022-10-18T12:57:16;96437.59;;;23.32;95.39
43878;BME280;29815;48.184;11.268;2022-10-18T12:59:50;96439.06;;;23.29;95.22
43878;BME280;29815;48.184;11.268;2022-10-18T13:02:30;96453.22;;;23.11;93.02
43878;BME280;29815;48.184;11.268;2022-10-18T13:05:03;96441.97;;;22.86;96.96
43878;BME280;29815;48.184;11.268;2022-10-18T13:08:41;96445.88;;;22.59;98.81
43878;BME280;29815;48.184;11.268;2022-10-18T13:11:31;96437.19;;;22.40;100.00
43878;BME280;29815;48.184;11.268;2022-10-18T13:14:22;96446.06;;;22.28;100.00
43878;BME280;29815;48.184;11.268;2022-10-18T13:17:34;96448.31;;;22.09;100.00
43878;BME280;29815;48.184;11.268;2022-10-18T13:20:19;96438.41;;;21.91;100.00
43878;BME280;29815;48.184;11.268;2022-10-18T13:23:09;96439.88;;;21.97;100.00
43878;BME280;29815;48.184;11.268;2022-10-18T13:25:53;96435.50;;;21.96;100.00
43878;BME280;29815;48.184;11.268;2022-10-18T13:28:34;96438.09;;;21.84;100.00
43878;BME280;29815;48.184;11.268;2022-10-18T13:31:17;96432.44;;;21.80;100.00
43878;BME280;29815;48.184;11.268;2022-10-18T13:33:49;96433.38;;;21.67;100.00
43878;BME280;29815;48.184;11.268;2022-10-18T13:36:22;96439.97;;;21.57;100.00